createdAt,value
2022-12-20T00:02:07.539Z,16.40
2022-12-20T00:04:35.725Z,14.80
2022-12-20T00:07:05.067Z,14.67
2022-12-20T00:09:33.084Z,16.20
2022-12-20T00:12:01.094Z,16.03
2022-12-20T00:14:29.117Z,15.00
2022-12-20T00:16:57.159Z,14.63
2022-12-20T00:19:25.212Z,14.90
2022-12-20T00:21:53.780Z,14.80
2022-12-20T00:24:26.261Z,13.87
2022-12-20T00:26:54.674Z,16.07
2022-12-20T00:29:22.776Z,15.17
2022-12-20T00:31:50.858Z,14.33
2022-12-20T00:34:18.910Z,13.10
2022-12-20T00:36:46.979Z,12.43
2022-12-20T00:39:14.983Z,13.70
2022-12-20T00:41:44.614Z,15.07
2022-12-20T00:44:12.748Z,12.50
2022-12-20T00:46:40.786Z,12.83
2022-12-20T00:49:08.830Z,14.93
2022-12-20T00:51:36.829Z,13.33
2022-12-20T00:54:04.933Z,12.73
2022-12-20T00:56:32.973Z,13.50
2022-12-20T00:59:02.379Z,13.17
2022-12-20T01:01:31.925Z,13.97
2022-12-20T01:04:00.479Z,12.33
2022-12-20T01:06:29.812Z,13.53
2022-12-20T01:08:58.282Z,13.47
2022-12-20T01:11:27.893Z,12.20
2022-12-20T01:13:57.957Z,12.77
2022-12-20T01:16:29.690Z,12.70
2022-12-20T01:18:58.003Z,12.77
2022-12-20T01:21:28.846Z,12.37
2022-12-20T01:23:58.282Z,13.40
2022-12-20T01:26:28.624Z,14.87
2022-12-20T01:28:58.638Z,12.63
2022-12-20T01:31:30.268Z,12.50
2022-12-20T01:33:58.505Z,11.67
2022-12-20T01:36:28.353Z,11.43
2022-12-20T01:38:58.638Z,12.07
2022-12-20T01:41:27.143Z,12.40
2022-12-20T01:43:56.503Z,13.33
2022-12-20T01:46:25.881Z,11.93
2022-12-20T01:48:59.943Z,12.30
2022-12-20T01:51:30.895Z,11.57
2022-12-20T01:54:04.482Z,12.83
2022-12-20T01:56:32.538Z,12.20
2022-12-20T01:59:01.969Z,14.57
2022-12-20T02:01:30.185Z,11.40
2022-12-20T02:03:59.726Z,14.60
2022-12-20T02:06:28.858Z,12.17
2022-12-20T02:09:00.280Z,11.80
2022-12-20T02:11:57.918Z,12.30
2022-12-20T02:14:43.251Z,11.70
2022-12-20T02:17:19.704Z,13.53
2022-12-20T02:20:15.472Z,11.77
2022-12-20T02:23:01.550Z,11.27
2022-12-20T02:25:45.945Z,12.40
2022-12-20T02:28:28.381Z,11.93
2022-12-20T02:31:01.367Z,12.07
2022-12-20T02:33:29.937Z,12.43
2022-12-20T02:35:57.988Z,13.47
2022-12-20T02:38:28.945Z,10.83
2022-12-20T02:41:01.572Z,14.87
2022-12-20T02:43:51.340Z,12.13
2022-12-20T02:46:22.127Z,11.67
2022-12-20T02:48:52.277Z,11.80
2022-12-20T02:51:22.608Z,12.73
2022-12-20T02:53:51.502Z,12.17
2022-12-20T02:56:24.069Z,12.53
2022-12-20T02:58:55.576Z,12.23
2022-12-20T03:01:29.435Z,11.40
2022-12-20T03:03:59.765Z,12.43
2022-12-20T03:06:29.593Z,11.97
2022-12-20T03:08:57.685Z,10.80
2022-12-20T03:11:25.700Z,13.57
2022-12-20T03:13:53.923Z,11.43
2022-12-20T03:16:22.084Z,13.50
2022-12-20T03:18:51.541Z,11.13
2022-12-20T03:21:19.520Z,11.63
2022-12-20T03:23:47.558Z,10.73
2022-12-20T03:26:15.580Z,10.17
2022-12-20T03:28:43.581Z,10.67
2022-12-20T03:31:11.673Z,11.07
2022-12-20T03:33:39.685Z,11.87
2022-12-20T03:36:09.633Z,12.90
2022-12-20T03:38:37.617Z,12.83
2022-12-20T03:41:05.722Z,11.50
2022-12-20T03:43:33.780Z,12.40
2022-12-20T03:46:01.844Z,11.47
2022-12-20T03:48:29.841Z,11.33
2022-12-20T03:50:57.854Z,12.07
2022-12-20T03:53:27.222Z,10.83
2022-12-20T03:55:55.298Z,12.13
2022-12-20T03:58:23.296Z,11.17
2022-12-20T04:00:51.290Z,11.33
2022-12-20T04:03:19.533Z,10.77
2022-12-20T04:05:47.655Z,10.60
2022-12-20T04:08:15.708Z,11.23
2022-12-20T04:10:58.987Z,13.17
2022-12-20T04:13:27.003Z,11.20
2022-12-20T04:15:59.992Z,10.63
2022-12-20T04:18:28.832Z,10.83
2022-12-20T04:20:56.851Z,12.93
2022-12-20T04:23:24.838Z,11.07
2022-12-20T04:25:54.264Z,11.37
2022-12-20T04:28:22.517Z,10.00
2022-12-20T04:30:50.606Z,10.63
2022-12-20T04:33:18.634Z,11.00
2022-12-20T04:35:46.664Z,11.93
2022-12-20T04:38:14.934Z,11.93
2022-12-20T04:40:43.473Z,10.30
2022-12-20T04:43:12.867Z,11.10
2022-12-20T04:45:40.974Z,10.93
2022-12-20T04:48:37.094Z,10.73
2022-12-20T04:50:57.829Z,10.13
2022-12-20T04:53:43.621Z,11.07
2022-12-20T04:56:11.671Z,10.50
2022-12-20T04:58:41.050Z,11.67
2022-12-20T05:01:09.214Z,10.57
2022-12-20T05:03:37.384Z,13.03
2022-12-20T05:06:05.747Z,11.17
2022-12-20T05:08:34.366Z,12.50
2022-12-20T05:11:02.621Z,10.43
2022-12-20T05:13:31.030Z,11.27
2022-12-20T05:16:00.489Z,10.90
2022-12-20T05:18:29.640Z,12.53
2022-12-20T05:21:16.110Z,12.17
2022-12-20T05:24:01.752Z,10.90
2022-12-20T05:26:32.240Z,11.00
2022-12-20T05:29:00.383Z,12.03
2022-12-20T05:31:29.775Z,10.80
2022-12-20T05:33:57.877Z,10.87
2022-12-20T05:36:25.891Z,10.83
2022-12-20T05:39:01.757Z,11.27
2022-12-20T05:41:31.924Z,12.07
2022-12-20T05:43:59.977Z,11.07
2022-12-20T05:46:29.352Z,12.07
2022-12-20T05:48:57.510Z,10.87
2022-12-20T05:51:25.819Z,10.80
2022-12-20T05:53:53.924Z,11.27
2022-12-20T05:56:21.995Z,10.03
2022-12-20T05:58:50.053Z,12.33
2022-12-20T06:01:18.385Z,10.93
2022-12-20T06:03:47.903Z,11.63
2022-12-20T06:06:16.048Z,10.70
2022-12-20T06:08:44.116Z,12.70
2022-12-20T06:11:12.093Z,10.50
2022-12-20T06:13:40.112Z,12.07
2022-12-20T06:16:08.632Z,12.13
2022-12-20T06:18:36.816Z,11.80
2022-12-20T06:21:06.549Z,10.77
2022-12-20T06:23:35.775Z,11.63
2022-12-20T06:26:04.746Z,11.07
2022-12-20T06:28:32.754Z,11.23
2022-12-20T06:31:00.763Z,12.03
2022-12-20T06:33:28.749Z,11.87
2022-12-20T06:35:56.744Z,11.27
2022-12-20T06:38:26.277Z,10.43
2022-12-20T06:40:54.269Z,10.63
2022-12-20T06:43:22.283Z,11.90
2022-12-20T06:45:50.316Z,12.57
2022-12-20T06:48:18.403Z,12.53
2022-12-20T06:50:50.736Z,11.33
2022-12-20T06:53:24.798Z,12.17
2022-12-20T06:55:53.029Z,11.33
2022-12-20T06:58:21.942Z,13.07
2022-12-20T07:00:50.179Z,11.90
2022-12-20T07:03:18.347Z,13.30
2022-12-20T07:05:46.503Z,12.60
2022-12-20T07:08:14.491Z,13.57
2022-12-20T07:10:43.904Z,12.10
2022-12-20T07:13:11.948Z,13.63
2022-12-20T07:15:40.147Z,13.83
2022-12-20T07:18:08.208Z,12.87
2022-12-20T07:20:36.726Z,11.80
2022-12-20T07:23:05.135Z,11.40
2022-12-20T07:25:33.132Z,12.47
2022-12-20T07:28:03.382Z,12.57
2022-12-20T07:30:31.490Z,13.47
2022-12-20T07:33:00.435Z,13.13
2022-12-20T07:35:28.482Z,12.53
2022-12-20T07:37:56.466Z,12.90
2022-12-20T07:40:24.480Z,13.30
2022-12-20T07:42:52.755Z,15.37
2022-12-20T07:45:22.169Z,12.03
2022-12-20T07:47:50.169Z,13.90
2022-12-20T07:50:18.298Z,14.40
2022-12-20T07:52:48.210Z,13.27
2022-12-20T07:55:16.457Z,13.37
2022-12-20T07:57:47.075Z,15.37
2022-12-20T08:00:16.404Z,14.23
2022-12-20T08:02:49.134Z,13.40
2022-12-20T08:05:18.062Z,14.80
2022-12-20T08:07:48.555Z,13.93
2022-12-20T08:10:20.682Z,13.57
2022-12-20T08:12:49.826Z,13.93
2022-12-20T08:15:19.320Z,12.03
2022-12-20T08:17:49.004Z,12.90
2022-12-20T08:20:17.179Z,14.97
2022-12-20T08:22:45.201Z,13.40
2022-12-20T08:25:13.231Z,13.63
2022-12-20T08:27:43.525Z,13.67
2022-12-20T08:30:12.712Z,13.33
2022-12-20T08:32:40.838Z,13.00
2022-12-20T08:35:10.464Z,13.60
2022-12-20T08:37:38.451Z,13.87
2022-12-20T08:40:08.829Z,13.80
2022-12-20T08:42:36.820Z,13.43
2022-12-20T08:45:05.557Z,13.87
2022-12-20T08:47:33.661Z,13.37
2022-12-20T08:50:01.901Z,12.87
2022-12-20T08:52:31.374Z,13.80
2022-12-20T08:55:01.708Z,11.80
2022-12-20T08:57:29.840Z,12.77
2022-12-20T08:59:57.832Z,11.83
2022-12-20T09:02:26.057Z,11.03
2022-12-20T09:04:54.147Z,15.50
2022-12-20T09:07:22.158Z,13.13
2022-12-20T09:09:51.498Z,11.77
2022-12-20T09:12:19.499Z,12.13
2022-12-20T09:14:47.631Z,12.50
2022-12-20T09:17:15.626Z,12.87
2022-12-20T09:19:43.605Z,11.63
2022-12-20T09:22:11.626Z,12.13
2022-12-20T09:24:39.899Z,11.17
2022-12-20T09:27:09.270Z,11.70
2022-12-20T09:29:37.377Z,11.63
2022-12-20T09:32:05.627Z,13.43
2022-12-20T09:34:33.718Z,11.57
2022-12-20T09:37:01.738Z,11.77
2022-12-20T09:39:29.761Z,12.20
2022-12-20T09:41:59.210Z,12.93
2022-12-20T09:44:31.742Z,12.00
2022-12-20T09:47:09.781Z,13.13
2022-12-20T09:49:43.030Z,14.37
2022-12-20T09:52:36.047Z,12.70
2022-12-20T09:55:17.182Z,13.57
2022-12-20T09:57:57.095Z,11.53
2022-12-20T10:00:26.729Z,13.47
2022-12-20T10:03:02.137Z,13.30
2022-12-20T10:05:43.837Z,12.00
2022-12-20T10:08:24.702Z,15.33
2022-12-20T10:10:59.552Z,14.43
2022-12-20T10:13:48.488Z,14.93
2022-12-20T10:16:34.761Z,13.47
2022-12-20T10:19:30.220Z,13.13
2022-12-20T10:22:06.105Z,15.70
2022-12-20T10:24:36.635Z,13.13
2022-12-20T10:27:14.004Z,13.83
2022-12-20T10:29:42.522Z,13.97
2022-12-20T10:32:15.458Z,14.10
2022-12-20T10:34:51.739Z,14.60
2022-12-20T10:37:19.758Z,16.57
2022-12-20T10:39:51.553Z,13.83
2022-12-20T10:42:35.676Z,14.20
2022-12-20T10:45:04.500Z,15.90
2022-12-20T10:47:41.672Z,14.43
2022-12-20T10:50:15.661Z,17.37
2022-12-20T10:52:44.182Z,15.77
2022-12-20T10:55:35.944Z,15.93
2022-12-20T10:58:06.616Z,14.90
2022-12-20T11:00:35.269Z,14.60
2022-12-20T11:03:13.509Z,14.43
2022-12-20T11:05:41.777Z,17.57
2022-12-20T11:11:17.288Z,18.23
2022-12-20T11:13:46.207Z,14.30
2022-12-20T11:16:26.612Z,14.17
2022-12-20T11:19:07.952Z,12.90
2022-12-20T11:21:45.223Z,14.00
2022-12-20T11:24:22.910Z,13.23
2022-12-20T11:27:13.448Z,13.10
2022-12-20T11:30:02.969Z,12.43
2022-12-20T11:32:48.885Z,12.90
2022-12-20T11:35:23.442Z,12.07
2022-12-20T11:38:09.868Z,12.30
2022-12-20T11:40:46.575Z,12.97
2022-12-20T11:43:31.056Z,12.30
2022-12-20T11:46:14.807Z,11.73
2022-12-20T11:49:04.542Z,11.80
2022-12-20T11:51:44.635Z,11.73
2022-12-20T11:54:18.742Z,10.93
2022-12-20T11:56:49.165Z,11.63
2022-12-20T11:59:23.622Z,13.47
2022-12-20T12:01:57.849Z,11.80
2022-12-20T12:04:30.656Z,11.23
2022-12-20T12:07:04.897Z,10.67
2022-12-20T12:09:38.834Z,10.37
2022-12-20T12:12:14.844Z,10.10
2022-12-20T12:14:52.740Z,11.53
2022-12-20T12:17:28.112Z,10.13
2022-12-20T12:20:02.732Z,10.57
2022-12-20T12:22:36.954Z,12.27
2022-12-20T12:25:14.913Z,10.33
2022-12-20T12:27:43.032Z,9.63
2022-12-20T12:30:14.754Z,9.90
2022-12-20T12:32:49.125Z,10.40
2022-12-20T12:35:37.977Z,9.70
2022-12-20T12:38:24.239Z,9.50
2022-12-20T12:41:04.717Z,9.60
2022-12-20T12:43:50.329Z,9.93
2022-12-20T12:46:23.856Z,9.67
2022-12-20T12:48:58.696Z,9.73
2022-12-20T12:51:32.235Z,11.37
2022-12-20T12:54:25.623Z,9.90
2022-12-20T12:56:55.665Z,10.97
2022-12-20T12:59:46.023Z,10.20
2022-12-20T13:02:36.748Z,9.33
2022-12-20T13:05:33.691Z,10.17
2022-12-20T13:08:01.814Z,9.73
2022-12-20T13:11:09.514Z,10.90
2022-12-20T13:13:38.896Z,10.10
2022-12-20T13:17:02.732Z,10.63
2022-12-20T13:19:35.247Z,10.80
2022-12-20T13:22:21.927Z,10.03
2022-12-20T13:24:57.154Z,9.83
2022-12-20T13:27:34.455Z,10.30
2022-12-20T13:30:30.928Z,12.13
2022-12-20T13:33:22.941Z,10.63
2022-12-20T13:36:19.433Z,10.97
2022-12-20T13:38:58.689Z,10.73
2022-12-20T13:41:39.294Z,10.20
2022-12-20T13:44:34.049Z,10.20
2022-12-20T13:47:13.738Z,9.90
2022-12-20T13:49:43.688Z,10.10
2022-12-20T13:52:29.655Z,10.60
2022-12-20T13:55:00.749Z,10.87
2022-12-20T13:57:32.387Z,10.70
2022-12-20T14:00:07.483Z,10.63
2022-12-20T14:02:42.928Z,10.60
2022-12-20T14:05:17.665Z,10.70
2022-12-20T14:07:48.879Z,11.00
2022-12-20T14:10:23.909Z,10.90
2022-12-20T14:12:52.834Z,11.87
2022-12-20T14:15:26.067Z,12.13
2022-12-20T14:17:55.642Z,12.17
2022-12-20T14:20:30.212Z,10.37
2022-12-20T14:23:05.823Z,10.90
2022-12-20T14:25:39.010Z,11.97
2022-12-20T14:28:11.314Z,12.00
2022-12-20T14:30:44.665Z,11.53
2022-12-20T14:33:22.091Z,12.20
2022-12-20T14:35:51.783Z,11.63
2022-12-20T14:38:23.869Z,12.27
2022-12-20T14:40:54.189Z,10.97
2022-12-20T14:43:28.664Z,11.03
2022-12-20T14:46:16.642Z,13.00
2022-12-20T14:48:47.199Z,12.67
2022-12-20T14:51:21.588Z,11.20
2022-12-20T14:53:51.362Z,11.80
2022-12-20T14:56:27.863Z,12.40
2022-12-20T14:59:06.141Z,11.93
2022-12-20T15:01:38.511Z,12.97
2022-12-20T15:04:24.824Z,12.17
2022-12-20T15:06:53.887Z,12.17
2022-12-20T15:09:22.513Z,12.10
2022-12-20T15:11:51.635Z,12.13
2022-12-20T15:14:29.697Z,12.50
2022-12-20T15:16:58.366Z,11.50
2022-12-20T15:19:27.957Z,12.70
2022-12-20T15:21:56.198Z,13.03
2022-12-20T15:24:26.534Z,11.97
2022-12-20T15:26:54.650Z,11.70
2022-12-20T15:29:25.082Z,12.87
2022-12-20T15:31:59.134Z,11.50
2022-12-20T15:34:32.038Z,11.87
2022-12-20T15:37:02.442Z,11.57
2022-12-20T15:39:31.000Z,13.20
2022-12-20T15:42:01.586Z,12.27
2022-12-20T15:44:31.585Z,12.87
2022-12-20T15:46:59.688Z,12.43
2022-12-20T15:49:31.578Z,12.40
2022-12-20T15:51:59.900Z,12.47
2022-12-20T15:54:30.544Z,12.53
2022-12-20T15:57:00.384Z,12.30
2022-12-20T16:00:00.523Z,13.67
2022-12-20T16:02:22.994Z,12.43
2022-12-20T16:04:52.752Z,12.23
2022-12-20T16:07:21.107Z,12.00
2022-12-20T16:09:49.187Z,12.87
2022-12-20T16:12:19.146Z,12.37
2022-12-20T16:14:47.497Z,12.17
2022-12-20T16:17:15.950Z,12.00
2022-12-20T16:19:44.718Z,12.07
2022-12-20T16:22:17.197Z,12.33
2022-12-20T16:24:45.721Z,13.73
2022-12-20T16:27:13.962Z,13.37
2022-12-20T16:29:42.072Z,13.23
2022-12-20T16:32:15.535Z,14.00
2022-12-20T16:34:43.775Z,14.23
2022-12-20T16:37:12.769Z,14.40
2022-12-20T16:39:42.203Z,14.43
2022-12-20T16:42:14.766Z,15.77
2022-12-20T16:44:44.835Z,16.27
2022-12-20T16:47:14.353Z,15.30
2022-12-20T16:49:49.656Z,15.67
2022-12-20T16:52:21.924Z,14.83
2022-12-20T16:54:52.062Z,15.43
2022-12-20T16:57:21.308Z,16.30
2022-12-20T16:59:49.512Z,17.23
2022-12-20T17:02:25.554Z,16.67
2022-12-20T17:04:53.669Z,16.57
2022-12-20T17:07:21.710Z,16.93
2022-12-20T17:09:51.378Z,18.03
2022-12-20T17:12:22.089Z,16.90
2022-12-20T17:14:50.537Z,17.17
2022-12-20T17:17:18.588Z,17.83
2022-12-20T17:19:46.581Z,17.00
2022-12-20T17:22:24.106Z,17.10
2022-12-20T17:24:53.489Z,17.77
2022-12-20T17:27:21.497Z,17.27
2022-12-20T17:29:50.723Z,17.97
2022-12-20T17:32:22.407Z,18.30
2022-12-20T17:34:50.801Z,19.30
2022-12-20T17:37:18.939Z,18.93
2022-12-20T17:39:47.027Z,20.23
2022-12-20T17:42:16.765Z,19.37
2022-12-20T17:44:46.162Z,19.27
2022-12-20T17:47:14.443Z,20.13
2022-12-20T17:49:42.455Z,21.10
2022-12-20T17:52:14.872Z,20.97
2022-12-20T17:54:43.119Z,19.20
2022-12-20T17:57:15.375Z,20.83
2022-12-20T17:59:45.214Z,19.73
2022-12-20T18:02:21.457Z,21.93
2022-12-20T18:04:49.977Z,21.00
2022-12-20T18:07:18.172Z,21.00
2022-12-20T18:09:48.718Z,22.60
2022-12-20T18:12:17.653Z,22.03
2022-12-20T18:14:49.373Z,21.57
2022-12-20T18:17:17.590Z,21.60
2022-12-20T18:19:45.808Z,22.17
2022-12-20T18:22:15.235Z,22.67
2022-12-20T18:24:43.251Z,21.80
2022-12-20T18:27:11.287Z,22.93
2022-12-20T18:29:39.635Z,21.47
2022-12-20T18:32:09.054Z,22.17
2022-12-20T18:34:37.194Z,22.53
2022-12-20T18:37:05.696Z,23.00
2022-12-20T18:39:34.096Z,19.83
2022-12-20T18:42:02.099Z,22.00
2022-12-20T18:44:35.660Z,24.83
2022-12-20T18:47:04.064Z,23.23
2022-12-20T18:49:33.531Z,23.87
2022-12-20T18:52:01.619Z,24.57
2022-12-20T18:54:30.871Z,23.83
2022-12-20T18:56:59.260Z,23.90
2022-12-20T18:59:27.284Z,24.67
2022-12-20T19:01:55.751Z,24.77
2022-12-20T19:04:25.063Z,28.03
2022-12-20T19:06:55.053Z,27.03
2022-12-20T19:09:23.319Z,24.93
2022-12-20T19:11:56.586Z,26.53
2022-12-20T19:14:25.009Z,27.17
2022-12-20T19:16:54.589Z,23.93
2022-12-20T19:19:22.826Z,25.70
2022-12-20T19:21:50.841Z,26.07
2022-12-20T19:24:21.354Z,27.57
2022-12-20T19:26:49.527Z,31.80
2022-12-20T19:29:17.547Z,27.73
2022-12-20T19:31:45.684Z,27.37
2022-12-20T19:34:15.060Z,28.27
2022-12-20T19:36:44.561Z,26.47
2022-12-20T19:39:17.518Z,29.17
2022-12-20T19:42:13.893Z,27.77
2022-12-20T19:44:36.061Z,26.93
2022-12-20T19:47:07.208Z,27.77
2022-12-20T19:49:36.717Z,31.67
2022-12-20T19:52:05.717Z,27.17
2022-12-20T19:54:33.962Z,27.93
2022-12-20T19:57:03.459Z,26.87
2022-12-20T19:59:31.473Z,24.43
2022-12-20T20:01:59.642Z,27.63
2022-12-20T20:04:27.764Z,27.23
2022-12-20T20:06:56.390Z,26.67
2022-12-20T20:09:24.537Z,28.53
2022-12-20T20:11:53.105Z,26.70
2022-12-20T20:14:22.832Z,31.17
2022-12-20T20:16:51.074Z,27.90
2022-12-20T20:19:20.446Z,28.30
2022-12-20T20:21:49.210Z,29.77
2022-12-20T20:24:17.619Z,28.47
2022-12-20T20:26:45.863Z,30.07
2022-12-20T20:29:14.006Z,28.50
2022-12-20T20:31:43.503Z,28.67
2022-12-20T20:34:12.317Z,26.53
2022-12-20T20:36:40.401Z,28.30
2022-12-20T20:39:08.402Z,27.13
2022-12-20T20:41:36.445Z,28.50
2022-12-20T20:44:04.564Z,27.37
2022-12-20T20:46:32.700Z,26.57
2022-12-20T20:49:02.128Z,27.10
2022-12-20T20:51:30.180Z,30.63
2022-12-20T20:53:58.378Z,28.57
2022-12-20T20:56:26.506Z,28.10
2022-12-20T20:58:57.633Z,30.47
2022-12-20T21:01:29.177Z,29.93
2022-12-20T21:03:58.157Z,28.67
2022-12-20T21:06:40.400Z,30.00
2022-12-20T21:09:09.540Z,29.97
2022-12-20T21:11:37.827Z,31.43
2022-12-20T21:14:05.875Z,30.17
2022-12-20T21:16:33.910Z,28.47
2022-12-20T21:19:02.062Z,30.93
2022-12-20T21:21:31.409Z,30.37
2022-12-20T21:23:59.425Z,30.53
2022-12-20T21:26:27.420Z,29.97
2022-12-20T21:28:58.226Z,32.13
2022-12-20T21:31:26.524Z,30.97
2022-12-20T21:33:55.329Z,29.77
2022-12-20T21:36:23.458Z,28.53
2022-12-20T21:38:54.471Z,30.70
2022-12-20T21:41:24.156Z,30.03
2022-12-20T21:43:52.644Z,30.63
2022-12-20T21:46:21.594Z,28.57
2022-12-20T21:48:49.689Z,28.20
2022-12-20T21:51:20.651Z,29.67
2022-12-20T21:53:50.742Z,27.83
2022-12-20T21:56:21.313Z,28.87
2022-12-20T21:58:49.830Z,28.27
2022-12-20T22:01:20.104Z,31.80
2022-12-20T22:03:50.924Z,27.37
2022-12-20T22:06:19.050Z,28.17
2022-12-20T22:08:47.077Z,27.63
2022-12-20T22:11:16.781Z,27.13
2022-12-20T22:13:46.925Z,27.70
2022-12-20T22:16:17.191Z,25.50
2022-12-20T22:18:49.105Z,26.67
2022-12-20T22:21:17.936Z,29.17
2022-12-20T22:23:45.943Z,26.37
2022-12-20T22:26:15.295Z,27.67
2022-12-20T22:28:48.513Z,26.83
2022-12-20T22:31:18.136Z,28.47
2022-12-20T22:33:46.599Z,28.50
2022-12-20T22:36:16.334Z,25.93
2022-12-20T22:38:44.745Z,25.30
2022-12-20T22:41:15.197Z,25.70
2022-12-20T22:43:44.551Z,24.97
2022-12-20T22:46:15.001Z,25.00
2022-12-20T22:48:43.280Z,25.30
2022-12-20T22:51:12.913Z,23.77
2022-12-20T22:53:41.670Z,23.70
2022-12-20T22:56:10.607Z,22.00
2022-12-20T22:58:39.831Z,23.37
2022-12-20T23:01:10.400Z,22.10
2022-12-20T23:03:40.267Z,21.37
2022-12-20T23:06:09.554Z,21.67
2022-12-20T23:08:38.584Z,20.37
2022-12-20T23:11:31.323Z,20.63
2022-12-20T23:14:16.847Z,20.40
2022-12-20T23:16:45.026Z,21.30
2022-12-20T23:19:14.499Z,20.43
2022-12-20T23:21:59.943Z,20.00
2022-12-20T23:24:27.970Z,21.20
2022-12-20T23:26:55.977Z,20.10
2022-12-20T23:29:24.009Z,20.07
2022-12-20T23:31:52.122Z,20.07
2022-12-20T23:34:21.684Z,19.10
2022-12-20T23:36:49.848Z,19.57
2022-12-20T23:39:17.837Z,19.27
2022-12-20T23:41:46.302Z,19.70
2022-12-20T23:44:14.282Z,18.07
2022-12-20T23:46:42.278Z,18.47
2022-12-20T23:49:10.283Z,16.73
2022-12-20T23:51:39.648Z,16.90
2022-12-20T23:54:07.715Z,14.90
2022-12-20T23:56:35.730Z,13.73
2022-12-20T23:59:03.871Z,14.53
